createdAt,value
2022-10-18T00:04:52.697Z,100502.33
2022-10-18T00:14:26.404Z,100491.05
2022-10-18T00:23:58.527Z,100494.70
2022-10-18T00:33:33.663Z,100480.69
2022-10-18T00:43:06.020Z,100487.83
2022-10-18T00:52:41.724Z,100490.27
2022-10-18T01:02:14.990Z,100484.08
2022-10-18T01:11:53.939Z,100478.53
2022-10-18T01:21:23.244Z,100477.64
2022-10-18T01:30:58.168Z,100461.70
2022-10-18T01:40:30.039Z,100449.00
2022-10-18T01:50:03.847Z,100439.92
2022-10-18T01:59:39.566Z,100429.70
2022-10-18T02:09:11.200Z,100430.41
2022-10-18T02:18:45.410Z,100440.23
2022-10-18T02:28:19.660Z,100439.96
2022-10-18T02:37:54.092Z,100461.02
2022-10-18T02:47:28.843Z,100536.23
2022-10-18T02:57:04.406Z,100505.48
2022-10-18T03:06:39.658Z,100478.50
2022-10-18T03:16:11.019Z,100499.03
2022-10-18T03:25:47.403Z,100462.81
2022-10-18T03:35:19.697Z,100438.09
2022-10-18T03:44:51.662Z,100469.25
2022-10-18T03:54:25.777Z,100522.73
2022-10-18T04:04:00.094Z,100538.73
2022-10-18T04:13:34.302Z,100502.69
2022-10-18T04:23:09.010Z,100508.63
2022-10-18T04:32:45.013Z,100499.81
2022-10-18T04:42:17.548Z,100489.09
2022-10-18T04:51:53.391Z,100485.42
2022-10-18T05:01:27.802Z,100486.45
2022-10-18T05:11:01.439Z,100484.20
2022-10-18T05:20:33.836Z,100482.59
2022-10-18T05:30:08.158Z,100495.39
2022-10-18T05:39:43.264Z,100536.75
2022-10-18T05:49:15.652Z,100519.27
2022-10-18T05:58:50.163Z,100505.27
2022-10-18T06:08:24.947Z,100513.95
2022-10-18T06:18:00.770Z,100555.61
2022-10-18T06:19:03.284Z,100553.27
2022-10-18T06:28:37.098Z,100545.47
2022-10-18T06:38:13.390Z,100529.62
2022-10-18T06:47:46.027Z,100522.69
2022-10-18T06:57:23.256Z,100548.11
2022-10-18T07:06:54.388Z,100559.62
2022-10-18T07:16:34.226Z,100569.21
2022-10-18T07:26:04.255Z,100582.38
2022-10-18T07:35:38.972Z,100582.88
2022-10-18T07:45:15.145Z,100586.17
2022-10-18T08:04:22.424Z,100599.80
2022-10-18T08:13:57.300Z,100603.82
2022-10-18T08:23:32.357Z,100622.70
2022-10-18T08:33:07.299Z,100621.53
2022-10-18T08:42:42.520Z,100630.92
2022-10-18T08:52:17.077Z,100642.27
2022-10-18T09:01:51.585Z,100644.23
2022-10-18T09:02:54.215Z,100640.78
2022-10-18T09:12:28.215Z,100651.96
2022-10-18T09:13:32.329Z,100648.95
2022-10-18T09:14:34.710Z,100648.80
2022-10-18T09:15:38.974Z,100654.41
2022-10-18T09:16:41.299Z,100648.63
2022-10-18T09:17:43.805Z,100648.55
2022-10-18T09:18:46.314Z,100647.19
2022-10-18T09:19:48.831Z,100652.77
2022-10-18T09:20:51.310Z,100649.95
2022-10-18T09:21:55.333Z,100651.67
2022-10-18T09:22:59.307Z,100652.05
2022-10-18T09:24:01.755Z,100650.70
2022-10-18T09:25:05.843Z,100653.14
2022-10-18T09:26:08.276Z,100655.75
2022-10-18T09:27:12.335Z,100653.89
2022-10-18T09:28:14.663Z,100655.67
2022-10-18T09:37:47.581Z,100651.14
2022-10-18T09:38:50.108Z,100652.95
2022-10-18T09:39:52.657Z,100650.94
2022-10-18T09:40:55.147Z,100656.13
2022-10-18T09:41:57.641Z,100657.33
2022-10-18T09:43:00.146Z,100655.89
2022-10-18T09:44:02.711Z,100657.08
2022-10-18T09:45:05.213Z,100660.32
2022-10-18T09:46:09.278Z,100651.97
2022-10-18T09:47:15.941Z,100650.29
2022-10-18T09:48:15.540Z,100653.33
2022-10-18T09:49:18.019Z,100652.63
2022-10-18T09:50:20.514Z,100652.25
2022-10-18T09:51:23.011Z,100648.50
2022-10-18T09:52:25.526Z,100653.06
2022-10-18T09:53:28.005Z,100650.45
2022-10-18T09:54:30.524Z,100647.30
2022-10-18T09:55:33.022Z,100644.69
2022-10-18T09:56:37.917Z,100644.50
2022-10-18T09:57:39.631Z,100647.41
2022-10-18T09:58:42.054Z,100644.27
2022-10-18T09:59:46.158Z,100649.05
2022-10-18T10:00:48.592Z,100642.25
2022-10-18T10:01:52.639Z,100642.98
2022-10-18T10:02:56.790Z,100645.88
2022-10-18T10:03:59.125Z,100642.98
2022-10-18T10:05:01.646Z,100643.74
2022-10-18T10:06:04.102Z,100643.55
2022-10-18T10:07:06.556Z,100642.33
2022-10-18T10:08:09.121Z,100644.00
2022-10-18T10:09:13.191Z,100647.08
2022-10-18T10:10:17.184Z,100649.89
2022-10-18T10:11:19.992Z,100647.67
2022-10-18T10:12:22.469Z,100648.95
2022-10-18T10:13:24.981Z,100647.02
2022-10-18T10:14:29.115Z,100649.85
2022-10-18T10:15:35.489Z,100648.72
2022-10-18T10:16:35.598Z,100647.42
2022-10-18T10:17:38.062Z,100651.53
2022-10-18T10:18:42.199Z,100650.49
2022-10-18T10:19:44.565Z,100651.27
2022-10-18T10:20:47.203Z,100652.17
2022-10-18T10:21:49.748Z,100653.48
2022-10-18T10:22:52.177Z,100661.52
2022-10-18T10:23:54.685Z,100663.67
2022-10-18T10:24:58.937Z,100667.05
2022-10-18T10:26:01.526Z,100668.41
2022-10-18T10:27:04.083Z,100668.67
2022-10-18T10:28:06.574Z,100665.84
2022-10-18T10:29:13.265Z,100669.31
2022-10-18T10:30:13.143Z,100665.36
2022-10-18T10:31:15.477Z,100666.64
2022-10-18T10:32:19.589Z,100671.16
2022-10-18T10:33:21.991Z,100663.66
2022-10-18T10:34:26.038Z,100670.70
2022-10-18T10:35:35.401Z,100671.55
2022-10-18T10:36:31.183Z,100674.68
2022-10-18T10:37:35.657Z,100676.04
2022-10-18T10:38:39.342Z,100675.80
2022-10-18T10:39:42.926Z,100679.44
2022-10-18T10:40:45.724Z,100681.38
2022-10-18T10:41:49.690Z,100680.63
2022-10-18T10:42:54.446Z,100679.92
2022-10-18T10:43:54.538Z,100688.26
2022-10-18T10:44:58.597Z,100690.17
2022-10-18T10:46:00.947Z,100693.09
2022-10-18T10:47:03.465Z,100696.27
2022-10-18T10:48:07.255Z,100693.67
2022-10-18T10:49:38.326Z,100693.03
2022-10-18T10:50:12.166Z,100698.88
2022-10-18T10:51:16.538Z,100699.38
2022-10-18T10:52:27.614Z,100700.42
2022-10-18T10:53:22.779Z,100698.38
2022-10-18T10:54:25.207Z,100700.61
2022-10-18T10:55:35.147Z,100697.75
2022-10-18T10:56:31.734Z,100696.00
2022-10-18T10:57:34.225Z,100700.64
2022-10-18T10:58:36.922Z,100696.48
2022-10-18T11:00:43.350Z,100699.16
2022-10-18T11:01:45.812Z,100698.88
2022-10-18T11:02:54.220Z,100698.97
2022-10-18T11:03:50.900Z,100697.22
2022-10-18T11:04:53.330Z,100696.83
2022-10-18T11:05:55.804Z,100693.38
2022-10-18T11:06:59.963Z,100699.05
2022-10-18T11:08:02.316Z,100696.14
2022-10-18T11:09:04.839Z,100691.56
2022-10-18T11:10:07.361Z,100690.70
2022-10-18T11:11:09.909Z,100687.27
2022-10-18T11:12:13.997Z,100688.79
2022-10-18T11:13:16.696Z,100687.52
2022-10-18T11:14:25.571Z,100685.88
2022-10-18T11:15:23.176Z,100680.63
2022-10-18T11:16:25.628Z,100685.89
2022-10-18T11:17:28.089Z,100683.03
2022-10-18T11:18:30.625Z,100681.23
2022-10-18T11:19:33.096Z,100681.48
2022-10-18T11:20:35.543Z,100683.97
2022-10-18T11:21:38.101Z,100683.47
2022-10-18T11:22:40.651Z,100678.48
2022-10-18T11:23:44.683Z,100683.39
2022-10-18T11:24:47.058Z,100680.25
2022-10-18T11:25:49.563Z,100681.81
2022-10-18T11:26:53.719Z,100682.41
2022-10-18T11:27:54.596Z,100680.11
2022-10-18T11:28:57.104Z,100685.91
2022-10-18T11:30:01.151Z,100683.06
2022-10-18T11:31:05.110Z,100681.15
2022-10-18T11:32:07.485Z,100682.38
2022-10-18T11:33:09.980Z,100681.63
2022-10-18T11:34:12.750Z,100679.63
2022-10-18T11:35:15.353Z,100684.03
2022-10-18T11:36:19.489Z,100676.11
2022-10-18T11:37:28.448Z,100680.31
2022-10-18T11:38:25.745Z,100678.02
2022-10-18T11:39:28.219Z,100681.69
2022-10-18T11:40:30.678Z,100678.77
2022-10-18T11:41:33.150Z,100682.66
2022-10-18T11:42:39.901Z,100682.45
2022-10-18T11:44:00.961Z,100682.95
2022-10-18T11:44:43.639Z,100680.04
2022-10-18T11:45:46.113Z,100680.95
2022-10-18T11:46:50.201Z,100680.55
2022-10-18T11:47:53.713Z,100678.36
2022-10-18T11:48:56.608Z,100677.70
2022-10-18T11:49:58.971Z,100674.79
2022-10-18T11:51:03.100Z,100675.64
2022-10-18T11:52:08.577Z,100675.30
2022-10-18T11:53:11.019Z,100671.50
2022-10-18T11:54:13.376Z,100673.17
2022-10-18T11:55:15.866Z,100677.34
2022-10-18T11:56:18.375Z,100674.77
2022-10-18T11:57:20.791Z,100679.72
2022-10-18T11:58:23.331Z,100680.78
2022-10-18T11:59:25.855Z,100680.63
2022-10-18T12:00:29.951Z,100678.87
2022-10-18T12:01:33.989Z,100682.28
2022-10-18T12:02:36.634Z,100680.64
2022-10-18T12:03:38.839Z,100681.91
2022-10-18T12:04:45.087Z,100678.57
2022-10-18T12:05:45.463Z,100679.52
2022-10-18T12:06:49.450Z,100680.19
2022-10-18T12:07:51.808Z,100679.87
2022-10-18T12:08:54.336Z,100680.05
2022-10-18T12:09:56.885Z,100677.09
2022-10-18T12:11:07.020Z,100675.22
2022-10-18T12:12:01.912Z,100678.95
2022-10-18T12:13:06.028Z,100671.39
2022-10-18T12:14:10.027Z,100671.71
2022-10-18T12:15:14.096Z,100669.51
2022-10-18T12:16:16.529Z,100665.52
2022-10-18T12:17:41.062Z,100670.05
2022-10-18T12:18:21.555Z,100661.30
2022-10-18T12:19:26.150Z,100666.98
2022-10-18T12:20:28.175Z,100661.00
2022-10-18T12:21:32.222Z,100662.70
2022-10-18T12:22:35.020Z,100660.90
2022-10-18T12:23:40.776Z,100658.56
2022-10-18T12:24:44.639Z,100661.38
2022-10-18T12:25:47.122Z,100661.80
2022-10-18T12:26:49.679Z,100660.22
2022-10-18T12:27:53.894Z,100655.41
2022-10-18T12:28:57.888Z,100657.16
2022-10-18T12:30:01.889Z,100657.52
2022-10-18T12:31:04.327Z,100654.86
2022-10-18T12:32:08.405Z,100653.11
2022-10-18T12:33:26.988Z,100651.89
2022-10-18T12:34:13.385Z,100649.07
2022-10-18T12:35:15.972Z,100654.18
2022-10-18T12:36:20.094Z,100655.73
2022-10-18T12:37:26.220Z,100647.19
2022-10-18T12:38:30.134Z,100649.73
2022-10-18T12:39:37.745Z,100648.22
2022-10-18T12:40:35.110Z,100645.02
2022-10-18T12:41:38.703Z,100650.28
2022-10-18T12:42:41.505Z,100647.56
2022-10-18T12:43:44.047Z,100648.25
2022-10-18T12:44:52.187Z,100645.48
2022-10-18T12:45:54.475Z,100645.61
2022-10-18T12:46:56.948Z,100647.08
2022-10-18T12:48:01.210Z,100643.66
2022-10-18T12:49:03.612Z,100645.16
2022-10-18T12:50:06.258Z,100642.59
2022-10-18T12:51:10.341Z,100640.41
2022-10-18T12:52:13.797Z,100642.47
2022-10-18T12:53:16.385Z,100641.69
2022-10-18T12:54:20.496Z,100644.73
2022-10-18T12:55:24.594Z,100640.16
2022-10-18T12:56:26.989Z,100642.32
2022-10-18T12:57:31.854Z,100640.13
2022-10-18T12:58:34.961Z,100639.47
2022-10-18T12:59:38.781Z,100641.49
2022-10-18T13:00:46.964Z,100643.02
2022-10-18T13:10:16.667Z,100637.97
2022-10-18T13:11:19.170Z,100636.19
2022-10-18T13:12:23.639Z,100636.98
2022-10-18T13:13:38.993Z,100637.34
2022-10-18T13:14:35.818Z,100637.81
2022-10-18T13:15:39.566Z,100639.80
2022-10-18T13:16:42.050Z,100639.84
2022-10-18T13:17:44.547Z,100639.05
2022-10-18T13:18:49.690Z,100638.30
2022-10-18T13:20:02.980Z,100639.05
2022-10-18T13:20:54.668Z,100633.16
2022-10-18T13:21:57.196Z,100635.98
2022-10-18T13:22:59.710Z,100632.08
2022-10-18T13:24:02.235Z,100634.74
2022-10-18T13:25:14.611Z,100637.98
2022-10-18T13:26:19.283Z,100638.43
2022-10-18T13:27:42.910Z,100638.01
2022-10-18T13:28:29.324Z,100636.67
2022-10-18T13:29:31.837Z,100635.06
2022-10-18T13:30:35.976Z,100640.27
2022-10-18T13:31:38.575Z,100644.60
2022-10-18T13:32:42.661Z,100640.92
2022-10-18T13:33:46.073Z,100641.41
2022-10-18T13:34:50.243Z,100640.27
2022-10-18T13:35:57.689Z,100640.85
2022-10-18T13:36:59.988Z,100639.07
2022-10-18T13:38:02.468Z,100641.39
2022-10-18T13:39:05.002Z,100639.72
2022-10-18T13:40:09.099Z,100641.94
2022-10-18T13:41:11.607Z,100641.56
2022-10-18T13:42:14.112Z,100640.01
2022-10-18T13:43:16.629Z,100639.43
2022-10-18T13:44:19.240Z,100641.81
2022-10-18T13:45:23.326Z,100641.96
2022-10-18T13:46:26.394Z,100640.19
2022-10-18T13:47:29.074Z,100637.19
2022-10-18T13:48:33.198Z,100645.90
2022-10-18T13:49:35.656Z,100640.67
2022-10-18T13:50:38.221Z,100643.92
2022-10-18T13:51:42.349Z,100647.81
2022-10-18T13:52:44.808Z,100647.47
2022-10-18T13:53:47.326Z,100648.91
2022-10-18T13:54:49.896Z,100641.89
2022-10-18T13:55:55.760Z,100649.14
2022-10-18T13:58:08.725Z,100648.16
2022-10-18T13:59:14.913Z,100649.13
2022-10-18T14:00:15.237Z,100648.69
2022-10-18T14:01:17.864Z,100647.88
2022-10-18T14:02:30.931Z,100650.34
2022-10-18T14:03:44.350Z,100651.75
2022-10-18T14:04:27.221Z,100650.20
2022-10-18T14:05:31.400Z,100649.92
2022-10-18T14:06:36.829Z,100649.94
2022-10-18T14:07:39.181Z,100651.81
2022-10-18T14:08:41.650Z,100650.89
2022-10-18T14:09:48.803Z,100651.30
2022-10-18T14:11:01.673Z,100655.41
2022-10-18T14:11:56.933Z,100653.22
2022-10-18T14:12:59.162Z,100653.63
2022-10-18T14:14:01.715Z,100652.72
2022-10-18T14:15:04.244Z,100651.45
2022-10-18T14:16:08.415Z,100651.67
2022-10-18T14:17:14.178Z,100655.28
2022-10-18T14:18:13.310Z,100653.27
2022-10-18T14:27:45.646Z,100656.92
2022-10-18T14:28:59.821Z,100656.66
2022-10-18T14:38:22.005Z,100660.97
2022-10-18T14:39:26.284Z,100661.84
2022-10-18T14:40:28.683Z,100660.31
2022-10-18T14:41:31.194Z,100662.52
2022-10-18T14:42:33.745Z,100666.16
2022-10-18T14:43:38.029Z,100667.63
2022-10-18T14:44:45.381Z,100670.19
2022-10-18T14:45:47.613Z,100671.75
2022-10-18T14:46:50.120Z,100672.44
2022-10-18T14:47:55.687Z,100675.46
2022-10-18T14:48:59.548Z,100670.92
2022-10-18T14:50:01.969Z,100671.52
2022-10-18T14:51:04.408Z,100673.02
2022-10-18T14:52:08.606Z,100675.91
2022-10-18T14:53:10.978Z,100667.84
2022-10-18T14:55:18.019Z,100669.52
2022-10-18T14:56:20.503Z,100672.11
2022-10-18T14:57:23.047Z,100675.95
2022-10-18T14:58:26.589Z,100671.52
2022-10-18T14:59:29.093Z,100672.17
2022-10-18T15:00:31.649Z,100672.44
2022-10-18T15:01:34.229Z,100671.66
2022-10-18T15:02:36.650Z,100671.42
2022-10-18T15:03:39.221Z,100670.47
2022-10-18T15:04:43.396Z,100669.78
2022-10-18T15:05:45.792Z,100671.38
2022-10-18T15:06:50.204Z,100674.30
2022-10-18T15:07:52.596Z,100676.97
2022-10-18T15:08:55.171Z,100673.81
2022-10-18T15:09:57.715Z,100672.14
2022-10-18T15:11:00.208Z,100673.53
2022-10-18T15:12:02.922Z,100673.27
2022-10-18T15:21:35.207Z,100676.63
2022-10-18T15:22:37.750Z,100680.39
2022-10-18T15:23:40.200Z,100679.32
2022-10-18T15:24:42.797Z,100678.57
2022-10-18T15:25:45.255Z,100680.97
2022-10-18T15:26:47.773Z,100680.34
2022-10-18T15:27:52.213Z,100681.04
2022-10-18T15:28:54.516Z,100678.69
2022-10-18T15:29:58.572Z,100679.48
2022-10-18T15:31:02.603Z,100682.16
2022-10-18T15:32:06.482Z,100676.98
2022-10-18T15:33:10.474Z,100680.75
2022-10-18T15:34:12.842Z,100677.40
2022-10-18T15:35:17.087Z,100675.17
2022-10-18T15:36:19.604Z,100670.91
2022-10-18T15:37:23.663Z,100673.52
2022-10-18T15:38:27.611Z,100668.19
2022-10-18T15:39:30.062Z,100666.70
2022-10-18T15:40:32.592Z,100672.12
2022-10-18T15:41:35.163Z,100675.81
2022-10-18T15:42:37.677Z,100673.82
2022-10-18T15:43:40.105Z,100679.46
2022-10-18T15:44:42.615Z,100672.23
2022-10-18T15:45:45.196Z,100677.02
2022-10-18T15:46:49.241Z,100673.46
2022-10-18T15:47:51.523Z,100675.80
2022-10-18T15:48:54.038Z,100679.73
2022-10-18T15:49:56.538Z,100674.47
2022-10-18T15:51:00.663Z,100677.48
2022-10-18T15:52:03.080Z,100672.47
2022-10-18T15:53:05.529Z,100673.69
2022-10-18T15:54:07.984Z,100674.09
2022-10-18T15:55:10.441Z,100671.02
2022-10-18T15:56:12.888Z,100671.52
2022-10-18T15:57:15.403Z,100672.83
2022-10-18T15:58:17.860Z,100677.45
2022-10-18T15:59:20.465Z,100672.00
2022-10-18T16:00:24.505Z,100673.30
2022-10-18T16:01:26.884Z,100671.23
2022-10-18T16:02:29.355Z,100675.58
2022-10-18T16:03:31.777Z,100673.89
2022-10-18T16:04:35.901Z,100675.27
2022-10-18T16:05:38.140Z,100671.89
2022-10-18T16:06:40.656Z,100671.57
2022-10-18T16:07:43.140Z,100674.27
2022-10-18T16:08:45.670Z,100676.53
2022-10-18T16:09:48.113Z,100672.14
2022-10-18T16:10:50.619Z,100668.19
2022-10-18T16:11:56.905Z,100670.96
2022-10-18T16:13:59.526Z,100671.55
2022-10-18T16:23:28.448Z,100670.19
2022-10-18T16:24:30.993Z,100673.36
2022-10-18T16:34:02.056Z,100677.75
2022-10-18T16:35:04.500Z,100679.34
2022-10-18T16:44:36.202Z,100685.80
2022-10-18T16:54:09.070Z,100703.05
2022-10-18T17:03:47.437Z,100711.34
2022-10-18T17:13:17.088Z,100716.18
2022-10-18T17:22:48.873Z,100723.73
2022-10-18T17:32:23.768Z,100735.47
2022-10-18T17:41:58.366Z,100738.77
2022-10-18T17:51:28.738Z,100736.36
2022-10-18T18:01:03.250Z,100739.05
2022-10-18T18:10:36.883Z,100740.27
2022-10-18T18:20:07.719Z,100740.87
2022-10-18T18:29:39.314Z,100747.14
2022-10-18T18:39:15.068Z,100751.09
2022-10-18T18:48:49.024Z,100751.70
2022-10-18T18:58:21.901Z,100759.22
2022-10-18T19:07:54.069Z,100756.65
2022-10-18T19:17:26.211Z,100755.84
2022-10-18T19:27:00.657Z,100757.48
2022-10-18T19:36:37.031Z,100758.05
2022-10-18T19:46:08.820Z,100753.55
2022-10-18T19:55:40.740Z,100751.41
2022-10-18T20:05:13.570Z,100746.38
2022-10-18T20:14:46.351Z,100747.59
2022-10-18T20:24:19.440Z,100747.64
2022-10-18T20:33:52.549Z,100758.17
2022-10-18T20:43:22.960Z,100745.42
2022-10-18T20:52:57.047Z,100738.23
2022-10-18T21:02:29.308Z,100730.91
2022-10-18T21:12:03.408Z,100734.75
2022-10-18T21:21:37.576Z,100726.56
2022-10-18T21:31:11.250Z,100722.89
2022-10-18T21:40:43.258Z,100718.00
2022-10-18T21:50:14.848Z,100713.50
2022-10-18T21:59:49.643Z,100715.03
2022-10-18T22:09:22.979Z,100698.91
2022-10-18T22:18:58.420Z,100702.23
2022-10-18T22:28:31.953Z,100697.25
2022-10-18T22:38:02.390Z,100689.50
2022-10-18T22:47:35.267Z,100690.16
2022-10-18T22:57:08.887Z,100694.19
2022-10-18T23:06:42.422Z,100700.16
2022-10-18T23:16:18.467Z,100707.03
2022-10-18T23:25:51.737Z,100715.84
2022-10-18T23:35:24.655Z,100712.61
2022-10-18T23:44:57.855Z,100710.13
2022-10-18T23:54:33.063Z,100721.76
